createdAt,value
2023-03-08T00:00:15.342Z,89.21
2023-03-08T00:05:18.301Z,89.59
2023-03-08T00:10:22.077Z,90.04
2023-03-08T00:15:25.435Z,91.08
2023-03-08T00:20:28.438Z,91.50
2023-03-08T00:25:32.090Z,91.43
2023-03-08T00:30:35.017Z,92.07
2023-03-08T00:35:38.035Z,91.91
2023-03-08T00:40:41.073Z,92.84
2023-03-08T00:45:44.187Z,92.70
2023-03-08T00:50:47.768Z,92.93
2023-03-08T00:55:57.610Z,93.16
2023-03-08T01:01:00.698Z,93.63
2023-03-08T01:06:13.919Z,93.63
2023-03-08T01:11:24.561Z,95.25
2023-03-08T01:16:31.852Z,95.39
2023-03-08T01:21:34.870Z,95.37
2023-03-08T01:26:38.096Z,97.38
2023-03-08T01:31:41.008Z,98.97
2023-03-08T01:36:44.026Z,100.00
2023-03-08T01:41:48.370Z,100.00
2023-03-08T01:46:51.449Z,100.00
2023-03-08T01:52:06.979Z,100.00
2023-03-08T01:57:20.601Z,100.00
2023-03-08T02:02:29.800Z,100.00
2023-03-08T02:07:32.823Z,100.00
2023-03-08T02:12:37.120Z,100.00
2023-03-08T02:17:42.812Z,100.00
2023-03-08T02:22:47.247Z,100.00
2023-03-08T02:27:53.538Z,100.00
2023-03-08T02:32:56.648Z,100.00
2023-03-08T02:38:00.241Z,100.00
2023-03-08T02:43:03.265Z,100.00
2023-03-08T02:48:06.669Z,100.00
2023-03-08T02:53:09.824Z,100.00
2023-03-08T02:58:12.848Z,100.00
2023-03-08T03:03:17.485Z,100.00
2023-03-08T03:08:20.527Z,100.00
2023-03-08T03:13:23.510Z,100.00
2023-03-08T03:18:26.866Z,100.00
2023-03-08T03:23:30.002Z,100.00
2023-03-08T03:28:33.179Z,100.00
2023-03-08T03:33:36.600Z,100.00
2023-03-08T03:38:40.545Z,100.00
2023-03-08T03:43:44.258Z,100.00
2023-03-08T03:48:47.914Z,100.00
2023-03-08T03:53:50.891Z,100.00
2023-03-08T03:58:55.028Z,100.00
2023-03-08T04:03:59.109Z,100.00
2023-03-08T04:09:06.670Z,100.00
2023-03-08T04:14:11.446Z,100.00
2023-03-08T04:19:14.453Z,100.00
2023-03-08T04:24:17.532Z,100.00
2023-03-08T04:29:21.233Z,100.00
2023-03-08T04:34:24.237Z,100.00
2023-03-08T04:39:27.185Z,100.00
2023-03-08T04:44:30.467Z,100.00
2023-03-08T04:49:33.559Z,100.00
2023-03-08T04:54:36.280Z,100.00
2023-03-08T04:59:39.303Z,100.00
2023-03-08T05:04:42.478Z,100.00
2023-03-08T05:09:45.308Z,100.00
2023-03-08T05:14:48.305Z,98.74
2023-03-08T05:19:51.348Z,97.25
2023-03-08T05:24:54.840Z,96.21
2023-03-08T05:29:57.817Z,94.51
2023-03-08T05:35:00.577Z,92.89
2023-03-08T05:40:06.516Z,91.14
2023-03-08T05:45:10.149Z,89.39
2023-03-08T05:50:13.492Z,86.02
2023-03-08T05:55:16.573Z,83.92
2023-03-08T06:00:19.902Z,81.10
2023-03-08T06:05:22.895Z,79.76
2023-03-08T06:10:26.388Z,78.32
2023-03-08T06:15:29.388Z,75.53
2023-03-08T06:20:33.001Z,73.15
2023-03-08T06:25:35.952Z,70.53
2023-03-08T06:30:39.421Z,68.11
2023-03-08T06:35:42.639Z,66.18
2023-03-08T06:40:45.851Z,65.79
2023-03-08T06:45:49.127Z,64.17
2023-03-08T06:50:52.164Z,62.34
2023-03-08T06:55:55.256Z,61.67
2023-03-08T07:01:00.131Z,60.43
2023-03-08T07:06:09.618Z,58.82
2023-03-08T07:11:12.412Z,59.41
2023-03-08T07:16:15.713Z,58.96
2023-03-08T07:21:18.762Z,59.33
2023-03-08T07:26:21.800Z,58.35
2023-03-08T07:31:26.667Z,58.50
2023-03-08T07:36:29.596Z,57.60
2023-03-08T07:41:34.804Z,56.28
2023-03-08T07:46:37.793Z,56.09
2023-03-08T07:51:40.924Z,55.79
2023-03-08T07:56:43.867Z,54.94
2023-03-08T08:01:46.838Z,54.06
2023-03-08T08:06:50.377Z,53.73
2023-03-08T08:11:53.311Z,54.05
2023-03-08T08:16:57.453Z,53.47
2023-03-08T08:22:00.919Z,54.83
2023-03-08T08:27:04.387Z,54.36
2023-03-08T08:32:08.409Z,54.25
2023-03-08T08:37:11.520Z,52.96
2023-03-08T08:42:14.537Z,52.91
2023-03-08T08:47:17.569Z,51.27
2023-03-08T08:52:20.659Z,49.34
2023-03-08T08:57:23.693Z,49.90
2023-03-08T09:02:26.822Z,50.04
2023-03-08T09:07:29.794Z,50.30
2023-03-08T09:12:32.729Z,50.02
2023-03-08T09:17:35.726Z,49.17
2023-03-08T09:22:39.663Z,48.27
2023-03-08T09:27:43.053Z,49.12
2023-03-08T09:32:46.189Z,46.96
2023-03-08T09:37:49.135Z,45.31
2023-03-08T09:42:54.525Z,45.04
2023-03-08T09:48:30.107Z,44.82
2023-03-08T09:53:46.861Z,43.77
2023-03-08T09:59:14.284Z,42.94
2023-03-08T10:05:14.406Z,43.44
2023-03-08T10:10:54.023Z,42.31
2023-03-08T10:16:36.043Z,41.74
2023-03-08T10:21:40.828Z,41.87
2023-03-08T10:26:45.150Z,42.74
2023-03-08T10:31:48.616Z,42.70
2023-03-08T10:37:06.474Z,41.22
2023-03-08T10:42:16.739Z,42.49
2023-03-08T10:47:34.752Z,41.23
2023-03-08T10:52:37.767Z,41.30
2023-03-08T10:57:45.763Z,41.02
2023-03-08T11:02:49.317Z,40.49
2023-03-08T11:08:01.185Z,39.66
2023-03-08T11:13:19.320Z,38.89
2023-03-08T11:19:17.200Z,39.13
2023-03-08T11:24:47.786Z,39.01
2023-03-08T11:30:50.629Z,38.36
2023-03-08T11:36:27.667Z,38.60
2023-03-08T11:42:08.224Z,38.75
2023-03-08T11:47:38.571Z,38.37
2023-03-08T11:53:09.756Z,38.55
2023-03-08T11:58:28.941Z,39.51
2023-03-08T12:03:39.077Z,40.55
2023-03-08T12:09:01.876Z,41.90
2023-03-08T12:14:34.034Z,42.52
2023-03-08T12:19:46.602Z,42.63
2023-03-08T12:25:02.803Z,43.22
2023-03-08T12:30:50.917Z,42.80
2023-03-08T12:36:01.351Z,42.73
2023-03-08T12:41:20.185Z,42.87
2023-03-08T12:46:23.300Z,43.31
2023-03-08T12:51:35.702Z,43.43
2023-03-08T12:56:52.494Z,42.49
2023-03-08T13:01:58.502Z,42.43
2023-03-08T13:07:33.626Z,41.48
2023-03-08T13:13:26.776Z,39.92
2023-03-08T13:18:36.919Z,40.06
2023-03-08T13:24:17.201Z,40.80
2023-03-08T13:29:21.687Z,41.01
2023-03-08T13:34:32.125Z,41.84
2023-03-08T13:39:34.866Z,42.10
2023-03-08T13:44:38.135Z,41.90
2023-03-08T13:49:45.643Z,41.92
2023-03-08T13:55:04.938Z,42.05
2023-03-08T14:00:32.563Z,42.07
2023-03-08T14:05:43.916Z,41.90
2023-03-08T14:11:01.030Z,41.70
2023-03-08T14:16:07.805Z,42.05
2023-03-08T14:21:29.416Z,42.54
2023-03-08T14:26:53.230Z,42.68
2023-03-08T14:32:01.761Z,42.82
2023-03-08T14:37:22.690Z,43.29
2023-03-08T14:42:30.635Z,43.93
2023-03-08T14:47:35.561Z,44.82
2023-03-08T14:52:48.681Z,45.63
2023-03-08T14:58:28.080Z,46.78
2023-03-08T15:03:35.324Z,47.46
2023-03-08T15:08:38.192Z,48.34
2023-03-08T15:13:41.351Z,49.04
2023-03-08T15:18:44.369Z,49.59
2023-03-08T15:23:49.198Z,50.21
2023-03-08T15:28:52.280Z,51.15
2023-03-08T15:33:55.241Z,51.79
2023-03-08T15:38:59.729Z,52.41
2023-03-08T15:44:02.460Z,53.05
2023-03-08T15:49:06.288Z,53.59
2023-03-08T15:54:11.384Z,54.42
2023-03-08T15:59:14.399Z,54.97
2023-03-08T16:04:17.453Z,55.25
2023-03-08T16:09:20.340Z,55.95
2023-03-08T16:14:23.414Z,56.82
2023-03-08T16:19:26.494Z,57.66
2023-03-08T16:24:29.761Z,58.21
2023-03-08T16:29:33.658Z,58.92
2023-03-08T16:34:37.788Z,59.57
2023-03-08T16:39:40.678Z,60.18
2023-03-08T16:44:53.571Z,60.96
2023-03-08T16:49:56.417Z,62.33
2023-03-08T16:55:05.461Z,63.04
2023-03-08T17:00:12.398Z,63.75
2023-03-08T17:05:15.371Z,64.71
2023-03-08T17:10:18.483Z,65.63
2023-03-08T17:15:21.639Z,66.82
2023-03-08T17:20:24.937Z,67.31
2023-03-08T17:25:41.224Z,67.90
2023-03-08T17:30:44.681Z,68.47
2023-03-08T17:35:47.737Z,68.72
2023-03-08T17:40:50.791Z,69.36
2023-03-08T17:46:03.721Z,69.98
2023-03-08T17:51:13.923Z,70.04
2023-03-08T17:56:29.259Z,70.26
2023-03-08T18:01:33.269Z,70.07
2023-03-08T18:06:40.336Z,70.52
2023-03-08T18:11:43.814Z,70.30
2023-03-08T18:16:46.760Z,70.10
2023-03-08T18:21:54.299Z,70.10
2023-03-08T18:26:58.106Z,70.43
2023-03-08T18:32:02.485Z,70.69
2023-03-08T18:37:07.051Z,70.90
2023-03-08T18:42:41.451Z,71.27
2023-03-08T18:54:03.974Z,72.30
2023-03-08T18:59:08.570Z,72.67
2023-03-08T19:04:11.799Z,73.00
2023-03-08T19:09:17.697Z,73.04
2023-03-08T19:14:21.109Z,73.34
2023-03-08T19:19:24.261Z,73.43
2023-03-08T19:24:27.699Z,73.09
2023-03-08T19:29:32.599Z,73.23
2023-03-08T19:34:40.450Z,72.83
2023-03-08T19:39:43.801Z,72.60
2023-03-08T19:44:48.537Z,72.58
2023-03-08T19:49:51.770Z,73.05
2023-03-08T19:54:54.874Z,73.20
2023-03-08T19:59:59.561Z,73.58
2023-03-08T20:05:02.564Z,73.28
2023-03-08T20:10:15.702Z,73.29
2023-03-08T20:15:19.160Z,73.29
2023-03-08T20:20:22.559Z,72.98
2023-03-08T20:25:25.493Z,73.20
2023-03-08T20:30:29.332Z,73.47
2023-03-08T20:35:32.449Z,73.94
2023-03-08T20:40:36.440Z,73.58
2023-03-08T20:45:40.505Z,73.55
2023-03-08T20:50:43.836Z,73.38
2023-03-08T20:55:46.721Z,73.21
2023-03-08T21:00:50.266Z,72.54
2023-03-08T21:05:53.571Z,71.86
2023-03-08T21:10:59.472Z,71.78
2023-03-08T21:16:06.302Z,71.08
2023-03-08T21:21:29.126Z,70.58
2023-03-08T21:26:33.471Z,70.61
2023-03-08T21:31:41.634Z,71.17
2023-03-08T21:36:45.329Z,71.71
2023-03-08T21:41:49.182Z,71.55
2023-03-08T21:46:52.660Z,70.79
2023-03-08T21:51:58.053Z,70.24
2023-03-08T21:57:01.134Z,69.11
2023-03-08T22:02:04.199Z,68.15
2023-03-08T22:07:07.308Z,67.47
2023-03-08T22:12:10.588Z,67.02
2023-03-08T22:17:13.996Z,66.60
2023-03-08T22:22:17.916Z,66.99
2023-03-08T22:27:23.124Z,66.46
2023-03-08T22:32:26.135Z,65.86
2023-03-08T22:37:29.103Z,65.81
2023-03-08T22:42:34.123Z,65.74
2023-03-08T22:47:37.290Z,65.88
2023-03-08T22:52:40.758Z,65.88
2023-03-08T22:57:44.373Z,65.80
2023-03-08T23:02:49.028Z,66.09
2023-03-08T23:07:53.309Z,66.08
2023-03-08T23:12:56.271Z,65.93
2023-03-08T23:17:59.353Z,66.06
2023-03-08T23:23:02.275Z,66.14
2023-03-08T23:28:05.726Z,66.27
2023-03-08T23:33:08.850Z,66.62
2023-03-08T23:38:11.985Z,66.57
2023-03-08T23:43:14.933Z,66.51
2023-03-08T23:48:17.841Z,66.23
2023-03-08T23:53:20.922Z,66.08
2023-03-08T23:58:23.869Z,65.32
